createdAt,value
2023-03-29T00:00:47.984Z,96501.06
2023-03-29T00:03:17.309Z,96504.03
2023-03-29T00:05:49.003Z,96523.13
2023-03-29T00:08:18.595Z,96533.84
2023-03-29T00:10:49.718Z,96535.31
2023-03-29T00:13:16.514Z,96547.41
2023-03-29T00:15:47.974Z,96545.44
2023-03-29T00:18:14.726Z,96552.44
2023-03-29T00:20:45.904Z,96571.06
2023-03-29T00:23:15.169Z,96577.63
2023-03-29T00:25:45.013Z,96557.69
2023-03-29T00:28:15.009Z,96569.59
2023-03-29T00:30:46.712Z,96576.59
2023-03-29T00:33:15.898Z,96587.78
2023-03-29T00:35:45.251Z,96588.81
2023-03-29T00:38:14.657Z,96589.56
2023-03-29T00:40:47.124Z,96582.41
2023-03-29T00:43:19.268Z,96581.50
2023-03-29T00:45:51.528Z,96561.84
2023-03-29T00:48:32.917Z,96580.63
2023-03-29T00:51:10.033Z,96568.69
2023-03-29T00:53:42.917Z,96573.00
2023-03-29T00:56:19.620Z,96562.75
2023-03-29T00:59:07.310Z,96564.69
2023-03-29T01:01:55.215Z,96563.50
2023-03-29T01:04:50.552Z,96565.88
2023-03-29T01:07:28.618Z,96560.94
2023-03-29T01:10:04.047Z,96559.03
2023-03-29T01:12:41.947Z,96537.56
2023-03-29T01:15:18.844Z,96538.91
2023-03-29T01:17:53.945Z,96549.31
2023-03-29T01:20:46.961Z,96540.22
2023-03-29T01:23:43.778Z,96537.97
2023-03-29T01:26:41.667Z,96529.66
2023-03-29T01:29:33.453Z,96522.19
2023-03-29T01:32:17.430Z,96507.63
2023-03-29T01:35:22.910Z,96506.44
2023-03-29T01:37:56.922Z,96511.63
2023-03-29T01:40:31.347Z,96493.31
2023-03-29T01:43:14.350Z,96499.41
2023-03-29T01:46:11.628Z,96490.50
2023-03-29T01:49:27.756Z,96482.59
2023-03-29T01:52:08.213Z,96466.66
2023-03-29T01:54:41.876Z,96458.03
2023-03-29T01:57:10.791Z,96451.91
2023-03-29T01:59:46.049Z,96439.72
2023-03-29T02:02:19.416Z,96455.50
2023-03-29T02:04:53.855Z,96457.13
2023-03-29T02:07:30.884Z,96455.03
2023-03-29T02:10:03.436Z,96453.25
2023-03-29T02:12:35.755Z,96437.31
2023-03-29T02:15:11.186Z,96435.22
2023-03-29T02:17:40.438Z,96436.84
2023-03-29T02:20:32.539Z,96439.94
2023-03-29T02:23:34.429Z,96430.72
2023-03-29T02:26:04.149Z,96442.78
2023-03-29T02:28:33.925Z,96430.44
2023-03-29T02:31:36.879Z,96430.13
2023-03-29T02:34:13.604Z,96411.19
2023-03-29T02:36:50.099Z,96406.88
2023-03-29T02:39:25.480Z,96418.06
2023-03-29T02:41:56.941Z,96406.47
2023-03-29T02:44:29.903Z,96408.25
2023-03-29T02:47:19.333Z,96395.72
2023-03-29T02:49:48.377Z,96403.50
2023-03-29T02:52:21.702Z,96390.41
2023-03-29T02:54:54.528Z,96381.34
2023-03-29T02:57:26.935Z,96377.75
2023-03-29T02:59:57.270Z,96366.91
2023-03-29T03:02:26.436Z,96383.28
2023-03-29T03:04:54.381Z,96362.88
2023-03-29T03:07:25.100Z,96359.00
2023-03-29T03:09:52.107Z,96371.66
2023-03-29T03:12:21.601Z,96378.22
2023-03-29T03:14:50.843Z,96356.16
2023-03-29T03:17:18.982Z,96343.66
2023-03-29T03:19:53.354Z,96367.03
2023-03-29T03:22:26.598Z,96350.22
2023-03-29T03:24:53.437Z,96348.72
2023-03-29T03:27:22.479Z,96349.94
2023-03-29T03:29:51.819Z,96337.88
2023-03-29T03:32:40.090Z,96339.69
2023-03-29T03:35:29.911Z,96353.09
2023-03-29T03:37:59.286Z,96342.53
2023-03-29T03:40:28.270Z,96329.16
2023-03-29T03:42:55.630Z,96327.66
2023-03-29T03:45:27.268Z,96322.00
2023-03-29T03:48:23.383Z,96316.06
2023-03-29T03:50:58.585Z,96331.41
2023-03-29T03:53:30.668Z,96317.84
2023-03-29T03:56:16.535Z,96305.50
2023-03-29T03:59:07.332Z,96313.22
2023-03-29T04:01:52.880Z,96295.69
2023-03-29T04:04:27.138Z,96296.84
2023-03-29T04:07:11.685Z,96295.50
2023-03-29T04:09:56.624Z,96292.53
2023-03-29T04:12:44.101Z,96288.69
2023-03-29T04:15:13.154Z,96287.78
2023-03-29T04:17:51.598Z,96292.72
2023-03-29T04:20:29.210Z,96292.44
2023-03-29T04:22:59.146Z,96282.03
2023-03-29T04:25:29.216Z,96293.78
2023-03-29T04:28:00.896Z,96280.22
2023-03-29T04:30:47.364Z,96282.03
2023-03-29T04:33:21.828Z,96289.31
2023-03-29T04:36:00.357Z,96262.97
2023-03-29T04:38:27.644Z,96286.31
2023-03-29T04:40:55.429Z,96281.25
2023-03-29T04:43:46.778Z,96283.03
2023-03-29T04:46:30.488Z,96269.19
2023-03-29T04:49:12.913Z,96259.50
2023-03-29T04:51:45.038Z,96256.38
2023-03-29T04:54:14.403Z,96264.09
2023-03-29T04:56:59.966Z,96257.69
2023-03-29T04:59:46.557Z,96260.97
2023-03-29T05:02:38.925Z,96255.75
2023-03-29T05:05:11.823Z,96258.09
2023-03-29T05:07:46.722Z,96243.66
2023-03-29T05:10:17.205Z,96249.31
2023-03-29T05:12:47.105Z,96248.69
2023-03-29T05:15:19.113Z,96257.03
2023-03-29T05:17:49.727Z,96258.94
2023-03-29T05:20:22.378Z,96252.41
2023-03-29T05:22:54.984Z,96252.69
2023-03-29T05:25:41.742Z,96263.50
2023-03-29T05:28:11.060Z,96253.94
2023-03-29T05:30:40.880Z,96259.88
2023-03-29T05:33:21.767Z,96248.84
2023-03-29T05:35:59.856Z,96246.16
2023-03-29T05:38:27.264Z,96270.84
2023-03-29T05:40:54.251Z,96258.44
2023-03-29T05:43:49.427Z,96252.78
2023-03-29T05:46:19.504Z,96254.81
2023-03-29T05:48:56.986Z,96255.38
2023-03-29T05:51:39.084Z,96249.50
2023-03-29T05:54:08.297Z,96247.41
2023-03-29T05:56:40.335Z,96256.72
2023-03-29T05:59:09.469Z,96247.00
2023-03-29T06:01:40.192Z,96240.53
2023-03-29T06:04:09.420Z,96257.88
2023-03-29T06:06:48.801Z,96251.53
2023-03-29T06:09:19.293Z,96244.91
2023-03-29T06:12:02.907Z,96242.22
2023-03-29T06:14:39.338Z,96248.91
2023-03-29T06:17:29.423Z,96248.84
2023-03-29T06:19:58.575Z,96244.03
2023-03-29T06:22:27.919Z,96248.72
2023-03-29T06:24:57.654Z,96234.41
2023-03-29T06:27:29.125Z,96239.88
2023-03-29T06:30:04.197Z,96241.34
2023-03-29T06:32:31.145Z,96253.47
2023-03-29T06:35:22.050Z,96253.72
2023-03-29T06:37:57.823Z,96255.94
2023-03-29T06:40:37.833Z,96265.81
2023-03-29T06:43:06.897Z,96276.22
2023-03-29T06:45:44.748Z,96275.84
2023-03-29T06:48:28.244Z,96265.38
2023-03-29T06:50:55.490Z,96266.09
2023-03-29T06:53:28.317Z,96272.63
2023-03-29T06:56:05.314Z,96257.84
2023-03-29T06:58:45.233Z,96269.22
2023-03-29T07:01:29.237Z,96255.84
2023-03-29T07:04:08.263Z,96267.59
2023-03-29T07:07:01.874Z,96265.88
2023-03-29T07:09:36.045Z,96256.09
2023-03-29T07:12:26.567Z,96270.53
2023-03-29T07:15:03.110Z,96277.31
2023-03-29T07:17:50.041Z,96262.16
2023-03-29T07:20:23.163Z,96270.16
2023-03-29T07:23:00.100Z,96269.66
2023-03-29T07:25:31.423Z,96267.81
2023-03-29T07:28:01.680Z,96259.66
2023-03-29T07:30:32.387Z,96271.63
2023-03-29T07:33:25.488Z,96270.59
2023-03-29T07:35:55.865Z,96275.28
2023-03-29T07:38:23.117Z,96271.06
2023-03-29T07:40:59.788Z,96267.56
2023-03-29T07:43:47.650Z,96272.13
2023-03-29T07:46:20.625Z,96279.84
2023-03-29T07:48:52.473Z,96272.25
2023-03-29T07:51:22.649Z,96280.81
2023-03-29T07:53:56.327Z,96282.25
2023-03-29T07:56:55.603Z,96278.25
2023-03-29T07:59:32.268Z,96276.59
2023-03-29T08:02:13.796Z,96279.66
2023-03-29T08:04:51.759Z,96268.56
2023-03-29T08:07:40.919Z,96265.59
2023-03-29T08:10:21.410Z,96276.72
2023-03-29T08:13:09.800Z,96287.88
2023-03-29T08:16:11.408Z,96278.16
2023-03-29T08:18:50.940Z,96267.91
2023-03-29T08:21:21.758Z,96287.13
2023-03-29T08:23:52.793Z,96300.44
2023-03-29T08:26:24.342Z,96290.13
2023-03-29T08:28:51.668Z,96285.91
2023-03-29T08:31:20.084Z,96265.31
2023-03-29T08:33:54.265Z,96287.91
2023-03-29T08:36:50.805Z,96290.03
2023-03-29T08:39:29.371Z,96278.91
2023-03-29T08:42:45.227Z,96297.63
2023-03-29T08:45:35.650Z,96292.69
2023-03-29T08:48:32.133Z,96283.41
2023-03-29T08:51:38.992Z,96281.81
2023-03-29T08:54:13.781Z,96294.91
2023-03-29T08:57:13.049Z,96279.72
2023-03-29T08:59:49.300Z,96287.31
2023-03-29T09:02:22.440Z,96282.59
2023-03-29T09:04:57.227Z,96286.53
2023-03-29T09:07:33.748Z,96272.03
2023-03-29T09:10:03.788Z,96279.22
2023-03-29T09:13:14.725Z,96262.44
2023-03-29T09:16:17.265Z,96267.72
2023-03-29T09:18:55.703Z,96281.97
2023-03-29T09:21:44.187Z,96278.47
2023-03-29T09:24:17.004Z,96280.91
2023-03-29T09:27:16.953Z,96289.72
2023-03-29T09:29:52.718Z,96283.75
2023-03-29T09:32:33.205Z,96291.13
2023-03-29T09:35:10.084Z,96282.06
2023-03-29T09:37:42.085Z,96285.88
2023-03-29T09:40:20.579Z,96293.47
2023-03-29T09:43:08.879Z,96283.53
2023-03-29T09:45:41.099Z,96295.16
2023-03-29T09:48:19.530Z,96275.06
2023-03-29T09:50:55.554Z,96283.31
2023-03-29T09:53:22.598Z,96272.22
2023-03-29T09:56:03.093Z,96289.66
2023-03-29T09:58:52.776Z,96286.88
2023-03-29T10:01:22.942Z,96267.97
2023-03-29T10:03:54.530Z,96277.03
2023-03-29T10:06:29.612Z,96275.25
2023-03-29T10:09:02.393Z,96261.06
2023-03-29T10:11:38.630Z,96257.34
2023-03-29T10:14:22.590Z,96265.34
2023-03-29T10:16:56.509Z,96261.41
2023-03-29T10:19:37.079Z,96253.03
2023-03-29T10:22:24.423Z,96257.69
2023-03-29T10:24:53.126Z,96259.63
2023-03-29T10:27:29.332Z,96249.34
2023-03-29T10:30:00.941Z,96238.34
2023-03-29T10:32:30.080Z,96251.91
2023-03-29T10:35:12.616Z,96254.13
2023-03-29T10:37:52.600Z,96251.38
2023-03-29T10:40:44.378Z,96249.97
2023-03-29T10:43:21.818Z,96228.50
2023-03-29T10:45:56.538Z,96246.00
2023-03-29T10:48:37.044Z,96234.22
2023-03-29T10:51:07.645Z,96236.50
2023-03-29T10:53:38.448Z,96246.28
2023-03-29T10:56:13.944Z,96246.09
2023-03-29T10:59:23.552Z,96248.50
2023-03-29T11:02:17.309Z,96237.88
2023-03-29T11:04:57.538Z,96239.19
2023-03-29T11:08:01.959Z,96234.94
2023-03-29T11:11:04.132Z,96234.38
2023-03-29T11:13:49.892Z,96242.50
2023-03-29T11:16:19.746Z,96239.09
2023-03-29T11:19:40.843Z,96224.25
2023-03-29T11:22:09.972Z,96232.28
2023-03-29T11:25:01.273Z,96223.78
2023-03-29T11:27:53.357Z,96228.88
2023-03-29T11:30:35.372Z,96231.16
2023-03-29T11:33:28.148Z,96216.28
2023-03-29T11:36:28.702Z,96222.53
2023-03-29T11:39:02.254Z,96225.56
2023-03-29T11:41:38.665Z,96225.00
2023-03-29T11:44:27.240Z,96212.81
2023-03-29T11:47:11.166Z,96225.53
2023-03-29T11:49:54.772Z,96222.25
2023-03-29T11:52:45.551Z,96219.56
2023-03-29T11:55:34.631Z,96219.09
2023-03-29T11:58:31.249Z,96223.69
2023-03-29T12:01:25.749Z,96223.84
2023-03-29T12:04:04.568Z,96221.91
2023-03-29T12:06:49.880Z,96215.50
2023-03-29T12:09:45.000Z,96203.50
2023-03-29T12:12:25.230Z,96208.56
2023-03-29T12:15:07.177Z,96208.00
2023-03-29T12:17:53.406Z,96206.59
2023-03-29T12:20:32.309Z,96193.13
2023-03-29T12:23:05.292Z,96209.72
2023-03-29T12:25:55.610Z,96206.44
2023-03-29T12:28:58.754Z,96198.72
2023-03-29T12:31:43.201Z,96195.22
2023-03-29T12:34:35.167Z,96183.09
2023-03-29T12:37:38.195Z,96187.50
2023-03-29T12:40:43.506Z,96191.84
2023-03-29T12:43:46.377Z,96173.19
2023-03-29T12:46:43.229Z,96184.72
2023-03-29T12:49:21.105Z,96181.28
2023-03-29T12:51:51.472Z,96175.56
2023-03-29T12:54:30.946Z,96166.47
2023-03-29T12:57:05.305Z,96167.28
2023-03-29T12:59:47.624Z,96173.84
2023-03-29T13:02:22.310Z,96165.22
2023-03-29T13:05:01.614Z,96174.72
2023-03-29T13:07:45.676Z,96175.56
2023-03-29T13:10:36.895Z,96174.25
2023-03-29T13:13:25.113Z,96171.53
2023-03-29T13:15:59.251Z,96163.66
2023-03-29T13:18:37.349Z,96163.09
2023-03-29T13:21:21.131Z,96168.31
2023-03-29T13:24:36.832Z,96167.00
2023-03-29T13:27:10.033Z,96162.22
2023-03-29T13:29:55.930Z,96156.78
2023-03-29T13:32:40.077Z,96145.69
2023-03-29T13:35:15.230Z,96141.63
2023-03-29T13:37:55.240Z,96134.78
2023-03-29T13:40:48.005Z,96137.94
2023-03-29T13:43:20.579Z,96140.22
2023-03-29T13:46:00.886Z,96141.78
2023-03-29T13:49:01.826Z,96117.91
2023-03-29T13:51:45.520Z,96125.63
2023-03-29T13:54:20.460Z,96138.06
2023-03-29T13:57:09.083Z,96129.56
2023-03-29T13:59:50.339Z,96123.25
2023-03-29T14:02:33.729Z,96126.25
2023-03-29T14:05:05.911Z,96114.78
2023-03-29T14:07:34.026Z,96106.41
2023-03-29T14:10:04.202Z,96113.63
2023-03-29T14:12:39.522Z,96113.09
2023-03-29T14:15:22.977Z,96108.88
2023-03-29T14:18:00.687Z,96124.06
2023-03-29T14:20:35.363Z,96107.47
2023-03-29T14:23:20.132Z,96092.31
2023-03-29T14:25:47.260Z,96101.53
2023-03-29T14:28:32.145Z,96100.81
2023-03-29T14:31:03.323Z,96105.88
2023-03-29T14:33:38.204Z,96110.22
2023-03-29T14:36:16.826Z,96099.00
2023-03-29T14:38:53.538Z,96107.88
2023-03-29T14:41:33.539Z,96110.69
2023-03-29T14:44:07.224Z,96112.22
2023-03-29T14:46:36.871Z,96110.44
2023-03-29T14:49:06.769Z,96105.47
2023-03-29T14:51:42.864Z,96106.03
2023-03-29T14:54:23.946Z,96113.47
2023-03-29T14:56:54.025Z,96098.31
2023-03-29T14:59:27.525Z,96110.13
2023-03-29T15:01:56.823Z,96102.06
2023-03-29T15:04:33.013Z,96112.22
2023-03-29T15:07:10.168Z,96112.00
2023-03-29T15:09:45.089Z,96112.81
2023-03-29T15:12:16.399Z,96114.13
2023-03-29T15:14:45.745Z,96101.53
2023-03-29T15:17:47.661Z,96111.81
2023-03-29T15:20:31.875Z,96105.13
2023-03-29T15:23:10.137Z,96095.47
2023-03-29T15:25:41.912Z,96101.06
2023-03-29T15:28:31.334Z,96099.41
2023-03-29T15:31:12.406Z,96106.47
2023-03-29T15:33:42.717Z,96102.41
2023-03-29T15:36:14.237Z,96112.88
2023-03-29T15:38:45.602Z,96121.50
2023-03-29T15:41:14.676Z,96119.81
2023-03-29T15:43:46.816Z,96121.47
2023-03-29T15:46:18.898Z,96117.81
2023-03-29T15:48:48.218Z,96113.84
2023-03-29T15:51:17.252Z,96108.59
2023-03-29T15:53:46.446Z,96105.88
2023-03-29T15:56:20.940Z,96105.38
2023-03-29T15:58:50.103Z,96101.63
2023-03-29T16:01:38.934Z,96105.81
2023-03-29T16:04:22.264Z,96104.34
2023-03-29T16:06:54.276Z,96105.41
2023-03-29T16:09:22.491Z,96095.88
2023-03-29T16:11:52.280Z,96094.63
2023-03-29T16:14:27.385Z,96098.75
2023-03-29T16:17:01.135Z,96086.72
2023-03-29T16:19:29.837Z,96092.19
2023-03-29T16:22:03.392Z,96084.75
2023-03-29T16:24:34.509Z,96102.09
2023-03-29T16:27:06.780Z,96098.31
2023-03-29T16:29:38.391Z,96090.47
2023-03-29T16:32:10.016Z,96091.13
2023-03-29T16:34:43.404Z,96110.53
2023-03-29T16:37:13.101Z,96096.84
2023-03-29T16:39:44.599Z,96099.72
2023-03-29T16:42:16.563Z,96107.50
2023-03-29T16:44:44.686Z,96090.81
2023-03-29T16:47:12.474Z,96091.31
2023-03-29T16:49:45.854Z,96094.44
2023-03-29T16:52:12.769Z,96114.31
2023-03-29T16:54:42.686Z,96106.94
2023-03-29T16:57:11.921Z,96090.25
2023-03-29T16:59:42.513Z,96096.31
2023-03-29T17:02:12.090Z,96091.25
2023-03-29T17:04:41.127Z,96104.09
2023-03-29T17:07:10.439Z,96095.50
2023-03-29T17:09:42.027Z,96084.53
2023-03-29T17:12:15.966Z,96075.94
2023-03-29T17:14:42.854Z,96093.13
2023-03-29T17:17:14.426Z,96081.03
2023-03-29T17:19:43.400Z,96072.25
2023-03-29T17:22:12.475Z,96068.91
2023-03-29T17:24:42.289Z,96075.31
2023-03-29T17:27:16.237Z,96065.56
2023-03-29T17:29:45.098Z,96074.97
2023-03-29T17:32:17.201Z,96070.13
2023-03-29T17:34:46.508Z,96073.84
2023-03-29T17:37:16.018Z,96074.56
2023-03-29T17:39:43.455Z,96075.31
2023-03-29T17:42:16.168Z,96075.94
2023-03-29T17:44:47.952Z,96080.28
2023-03-29T17:47:19.548Z,96078.88
2023-03-29T17:49:46.406Z,96081.97
2023-03-29T17:52:15.490Z,96083.63
2023-03-29T17:54:44.735Z,96079.34
2023-03-29T17:57:13.762Z,96084.44
2023-03-29T17:59:43.177Z,96079.59
2023-03-29T18:02:22.197Z,96069.38
2023-03-29T18:04:56.364Z,96085.56
2023-03-29T18:07:25.594Z,96086.22
2023-03-29T18:09:54.724Z,96081.88
2023-03-29T18:12:30.130Z,96083.34
2023-03-29T18:14:57.195Z,96084.91
2023-03-29T18:17:31.457Z,96081.13
2023-03-29T18:20:01.502Z,96085.47
2023-03-29T18:22:29.144Z,96088.09
2023-03-29T18:24:56.590Z,96095.38
2023-03-29T18:27:28.272Z,96083.69
2023-03-29T18:29:58.876Z,96078.47
2023-03-29T18:32:25.719Z,96090.16
2023-03-29T18:34:52.475Z,96093.03
2023-03-29T18:37:24.083Z,96098.75
2023-03-29T18:39:58.043Z,96090.88
2023-03-29T18:42:27.216Z,96087.94
2023-03-29T18:44:59.504Z,96092.28
2023-03-29T18:47:31.206Z,96092.28
2023-03-29T18:50:03.005Z,96091.47
2023-03-29T18:52:32.436Z,96083.53
2023-03-29T18:54:59.283Z,96099.25
2023-03-29T18:57:28.573Z,96094.66
2023-03-29T19:00:00.097Z,96090.34
2023-03-29T19:02:29.446Z,96095.97
2023-03-29T19:05:00.820Z,96084.28
2023-03-29T19:07:29.977Z,96095.16
2023-03-29T19:09:59.020Z,96102.88
2023-03-29T19:12:32.930Z,96101.88
2023-03-29T19:15:02.548Z,96105.56
2023-03-29T19:17:29.474Z,96085.28
2023-03-29T19:20:00.812Z,96093.28
2023-03-29T19:22:27.772Z,96101.16
2023-03-29T19:24:59.180Z,96105.41
2023-03-29T19:27:26.189Z,96089.53
2023-03-29T19:29:57.868Z,96091.66
2023-03-29T19:32:27.352Z,96088.72
2023-03-29T19:34:56.446Z,96080.63
2023-03-29T19:37:23.359Z,96076.84
2023-03-29T19:39:54.747Z,96081.25
2023-03-29T19:42:21.653Z,96077.84
2023-03-29T19:44:50.861Z,96080.53
2023-03-29T19:47:17.742Z,96083.56
2023-03-29T19:49:46.339Z,96088.94
2023-03-29T19:52:13.289Z,96079.44
2023-03-29T19:54:44.630Z,96087.47
2023-03-29T19:57:17.181Z,96070.06
2023-03-29T19:59:46.554Z,96083.88
2023-03-29T20:02:15.777Z,96072.16
2023-03-29T20:04:45.848Z,96080.66
2023-03-29T20:07:14.926Z,96071.53
2023-03-29T20:09:45.466Z,96066.09
2023-03-29T20:12:12.426Z,96064.22
2023-03-29T20:14:43.423Z,96077.44
2023-03-29T20:17:15.674Z,96068.34
2023-03-29T20:19:44.898Z,96081.66
2023-03-29T20:22:12.256Z,96073.63
2023-03-29T20:24:41.403Z,96070.13
2023-03-29T20:27:11.169Z,96057.69
2023-03-29T20:29:40.304Z,96051.16
2023-03-29T20:32:09.524Z,96061.56
2023-03-29T20:34:41.393Z,96052.41
2023-03-29T20:37:10.659Z,96050.50
2023-03-29T20:39:39.585Z,96045.41
2023-03-29T20:42:09.444Z,96046.78
2023-03-29T20:44:41.230Z,96054.88
2023-03-29T20:47:14.264Z,96048.34
2023-03-29T20:49:42.365Z,96039.75
2023-03-29T20:52:18.309Z,96038.22
2023-03-29T20:54:45.947Z,96023.16
2023-03-29T20:57:18.977Z,96031.34
2023-03-29T20:59:46.724Z,96029.88
2023-03-29T21:02:21.484Z,96017.53
2023-03-29T21:04:54.139Z,96019.66
2023-03-29T21:07:21.890Z,95999.47
2023-03-29T21:09:51.163Z,96006.00
2023-03-29T21:12:21.094Z,95999.03
2023-03-29T21:14:52.515Z,95998.72
2023-03-29T21:17:24.920Z,96010.81
2023-03-29T21:19:55.010Z,96001.34
2023-03-29T21:22:22.148Z,95994.78
2023-03-29T21:24:49.145Z,95985.75
2023-03-29T21:27:23.069Z,95971.28
2023-03-29T21:29:55.447Z,95974.88
2023-03-29T21:32:24.850Z,95972.00
2023-03-29T21:34:53.787Z,95979.94
2023-03-29T21:37:28.015Z,95975.53
2023-03-29T21:39:59.621Z,95996.84
2023-03-29T21:42:27.957Z,95965.78
2023-03-29T21:44:54.912Z,95973.91
2023-03-29T21:47:21.753Z,95962.69
2023-03-29T21:49:48.704Z,95982.13
2023-03-29T21:52:20.424Z,95971.50
2023-03-29T21:54:47.220Z,95994.44
2023-03-29T21:57:16.431Z,95990.72
2023-03-29T21:59:45.788Z,95980.13
2023-03-29T22:02:12.658Z,95974.78
2023-03-29T22:04:41.828Z,95979.81
2023-03-29T22:07:10.864Z,95957.63
2023-03-29T22:09:37.854Z,95970.13
2023-03-29T22:12:04.932Z,95968.00
2023-03-29T22:14:37.690Z,95972.34
2023-03-29T22:17:10.920Z,95975.91
2023-03-29T22:19:40.202Z,95972.34
2023-03-29T22:22:13.938Z,95965.16
2023-03-29T22:24:48.369Z,95960.50
2023-03-29T22:27:15.160Z,95959.69
2023-03-29T22:29:45.022Z,95956.41
2023-03-29T22:32:14.786Z,95956.59
2023-03-29T22:34:41.889Z,95956.59
2023-03-29T22:37:16.085Z,95960.25
2023-03-29T22:39:46.023Z,95958.88
2023-03-29T22:42:12.792Z,95946.63
2023-03-29T22:44:39.568Z,95953.00
2023-03-29T22:47:06.823Z,95948.25
2023-03-29T22:49:36.709Z,95948.44
2023-03-29T22:52:05.987Z,95936.25
2023-03-29T22:54:32.828Z,95932.75
2023-03-29T22:57:02.044Z,95932.00
2023-03-29T22:59:31.229Z,95933.63
2023-03-29T23:01:58.424Z,95935.84
2023-03-29T23:04:27.906Z,95940.72
2023-03-29T23:07:00.494Z,95924.31
2023-03-29T23:09:29.545Z,95922.84
2023-03-29T23:11:58.861Z,95926.59
2023-03-29T23:14:25.649Z,95918.69
2023-03-29T23:16:54.756Z,95903.38
2023-03-29T23:19:24.041Z,95926.59
2023-03-29T23:21:51.031Z,95906.34
2023-03-29T23:24:20.205Z,95915.56
2023-03-29T23:26:49.109Z,95903.38
2023-03-29T23:29:20.665Z,95905.69
2023-03-29T23:31:56.925Z,95898.34
2023-03-29T23:34:28.443Z,95891.31
2023-03-29T23:36:57.751Z,95895.72
2023-03-29T23:39:29.796Z,95898.72
2023-03-29T23:42:01.828Z,95891.38
2023-03-29T23:44:33.389Z,95898.72
2023-03-29T23:47:02.694Z,95885.06
2023-03-29T23:49:30.223Z,95885.81
2023-03-29T23:52:00.288Z,95884.91
2023-03-29T23:54:32.136Z,95877.88
2023-03-29T23:57:03.089Z,95895.22
2023-03-29T23:59:38.053Z,95877.81
